BTK7288 WIMM-WMKK
Flight info
| Callsign | BTK7288 |
|---|---|
| Flight time | 0h 45m |
| Altitude | 25000 |
| Route | PUGER2B/23 PUGER PUGER3J |
| Aircraft | B738/M-SDE2E3FGHIRWXY/LB1 |
Departure
| Time | 2026-05-04 12:47 |
|---|---|
| Airport | Kualanamu International Airport (WIMM) |
Arrival
| Time | 2026-05-04 13:32 |
|---|---|
| Airport | Kuala Lumpur International Airport (WMKK) |
| Time | Latitude | Longitude | Altitude | Speed | Heading |
|---|---|---|---|---|---|
| 2026-05-04 12:31 | 3.63630 | 98.88103 | 32 ft | 0 kts | 225° |
| 2026-05-04 12:36 | 3.63630 | 98.88104 | 32 ft | 0 kts | 225° |
| 2026-05-04 12:36 | 3.63638 | 98.88111 | 32 ft | 2 kts | 225° |
| 2026-05-04 12:37 | 3.63648 | 98.88122 | 32 ft | 2 kts | 225° |
| 2026-05-04 12:37 | 3.63659 | 98.88133 | 32 ft | 2 kts | 225° |
| 2026-05-04 12:37 | 3.63669 | 98.88142 | 32 ft | 2 kts | 225° |
| 2026-05-04 12:37 | 3.63677 | 98.88155 | 32 ft | 2 kts | 265° |
| 2026-05-04 12:38 | 3.63675 | 98.88170 | 32 ft | 2 kts | 302° |
| 2026-05-04 12:38 | 3.63664 | 98.88180 | 32 ft | 2 kts | 319° |
| 2026-05-04 12:38 | 3.63656 | 98.88188 | 32 ft | 0 kts | 312° |
| 2026-05-04 12:41 | 3.63664 | 98.88180 | 32 ft | 3 kts | 313° |
| 2026-05-04 12:41 | 3.63700 | 98.88144 | 32 ft | 10 kts | 315° |
| 2026-05-04 12:41 | 3.63754 | 98.88091 | 32 ft | 10 kts | 315° |
| 2026-05-04 12:41 | 3.63809 | 98.88038 | 32 ft | 11 kts | 314° |
| 2026-05-04 12:42 | 3.63863 | 98.87983 | 32 ft | 11 kts | 314° |
| 2026-05-04 12:42 | 3.63921 | 98.87962 | 32 ft | 9 kts | 32° |
| 2026-05-04 12:42 | 3.63972 | 98.88007 | 32 ft | 10 kts | 46° |
| 2026-05-04 12:42 | 3.64030 | 98.88065 | 32 ft | 13 kts | 45° |
| 2026-05-04 12:43 | 3.64103 | 98.88137 | 32 ft | 15 kts | 44° |
| 2026-05-04 12:43 | 3.64178 | 98.88200 | 32 ft | 12 kts | 12° |
| 2026-05-04 12:43 | 3.64247 | 98.88158 | 32 ft | 11 kts | 312° |
| 2026-05-04 12:43 | 3.64309 | 98.88094 | 32 ft | 15 kts | 315° |
| 2026-05-04 12:44 | 3.64381 | 98.88020 | 32 ft | 14 kts | 314° |
| 2026-05-04 12:44 | 3.64460 | 98.87975 | 32 ft | 12 kts | 22° |
| 2026-05-04 12:44 | 3.64522 | 98.88035 | 32 ft | 12 kts | 47° |
| 2026-05-04 12:44 | 3.64579 | 98.88095 | 32 ft | 11 kts | 46° |
| 2026-05-04 12:45 | 3.64638 | 98.88154 | 32 ft | 11 kts | 45° |
| 2026-05-04 12:45 | 3.64695 | 98.88210 | 32 ft | 11 kts | 44° |
| 2026-05-04 12:45 | 3.64750 | 98.88264 | 32 ft | 10 kts | 45° |
| 2026-05-04 12:45 | 3.64816 | 98.88327 | 32 ft | 13 kts | 32° |
| 2026-05-04 12:46 | 3.64891 | 98.88316 | 32 ft | 9 kts | 330° |
| 2026-05-04 12:46 | 3.64942 | 98.88272 | 32 ft | 9 kts | 315° |
| 2026-05-04 12:46 | 3.64958 | 98.88232 | 32 ft | 5 kts | 252° |
| 2026-05-04 12:46 | 3.64926 | 98.88189 | 32 ft | 13 kts | 225° |
| 2026-05-04 12:47 | 3.64753 | 98.88017 | 32 ft | 68 kts | 225° |
| 2026-05-04 12:47 | 3.64251 | 98.87519 | 32 ft | 131 kts | 225° |
| 2026-05-04 12:47 | 3.63482 | 98.86750 | 50 ft | 179 kts | 224° |
| 2026-05-04 12:47 | 3.62593 | 98.85895 | 676 ft | 177 kts | 225° |
| 2026-05-04 12:48 | 3.61697 | 98.85021 | 1305 ft | 187 kts | 226° |
| 2026-05-04 12:48 | 3.60734 | 98.84050 | 1906 ft | 204 kts | 227° |
| 2026-05-04 12:48 | 3.59664 | 98.83064 | 2489 ft | 224 kts | 213° |
| 2026-05-04 12:48 | 3.58108 | 98.82635 | 3128 ft | 244 kts | 176° |
| 2026-05-04 12:49 | 3.56475 | 98.83145 | 3849 ft | 258 kts | 146° |
| 2026-05-04 12:49 | 3.55031 | 98.84279 | 4598 ft | 272 kts | 137° |
| 2026-05-04 12:49 | 3.53581 | 98.85573 | 5465 ft | 282 kts | 137° |
| 2026-05-04 12:49 | 3.52112 | 98.86874 | 6442 ft | 287 kts | 137° |
| 2026-05-04 12:50 | 3.50626 | 98.88161 | 7421 ft | 289 kts | 138° |
| 2026-05-04 12:50 | 3.49078 | 98.89484 | 8395 ft | 293 kts | 137° |
| 2026-05-04 12:50 | 3.47531 | 98.90803 | 9341 ft | 296 kts | 137° |
| 2026-05-04 12:50 | 3.45972 | 98.92130 | 10264 ft | 299 kts | 137° |
| 2026-05-04 12:51 | 3.44474 | 98.93617 | 10901 ft | 310 kts | 123° |
| 2026-05-04 12:51 | 3.43539 | 98.95574 | 11490 ft | 320 kts | 106° |
| 2026-05-04 12:51 | 3.42934 | 98.97781 | 12071 ft | 334 kts | 102° |
| 2026-05-04 12:51 | 3.42365 | 99.00027 | 12912 ft | 337 kts | 103° |
| 2026-05-04 12:52 | 3.41721 | 99.02307 | 13696 ft | 343 kts | 105° |
| 2026-05-04 12:52 | 3.41009 | 99.04571 | 14518 ft | 346 kts | 107° |
| 2026-05-04 12:52 | 3.40241 | 99.06864 | 15321 ft | 349 kts | 107° |
| 2026-05-04 12:52 | 3.39453 | 99.09161 | 15727 ft | 352 kts | 108° |
| 2026-05-04 12:53 | 3.38652 | 99.11479 | 15851 ft | 353 kts | 108° |
| 2026-05-04 12:53 | 3.37854 | 99.13791 | 15853 ft | 350 kts | 108° |
| 2026-05-04 12:53 | 3.37061 | 99.16096 | 15850 ft | 351 kts | 108° |
| 2026-05-04 12:53 | 3.36264 | 99.18423 | 15851 ft | 350 kts | 108° |
| 2026-05-04 12:54 | 3.35475 | 99.20732 | 15851 ft | 351 kts | 108° |
| 2026-05-04 12:54 | 3.34688 | 99.23040 | 15847 ft | 351 kts | 108° |
| 2026-05-04 12:54 | 3.33893 | 99.25370 | 15846 ft | 351 kts | 108° |
| 2026-05-04 12:54 | 3.33111 | 99.27663 | 15850 ft | 351 kts | 108° |
| 2026-05-04 12:55 | 3.32322 | 99.29977 | 15845 ft | 351 kts | 108° |
| 2026-05-04 12:55 | 3.31531 | 99.32297 | 15845 ft | 351 kts | 108° |
| 2026-05-04 12:55 | 3.30740 | 99.34616 | 15845 ft | 350 kts | 108° |
| 2026-05-04 12:55 | 3.29959 | 99.36906 | 15844 ft | 350 kts | 108° |
| 2026-05-04 12:56 | 3.29170 | 99.39219 | 15843 ft | 352 kts | 108° |
| 2026-05-04 12:56 | 3.28387 | 99.41511 | 15842 ft | 350 kts | 108° |
| 2026-05-04 12:56 | 3.27598 | 99.43822 | 15839 ft | 352 kts | 108° |
| 2026-05-04 12:56 | 3.26803 | 99.46152 | 15836 ft | 351 kts | 108° |
| 2026-05-04 12:57 | 3.26013 | 99.48464 | 15836 ft | 350 kts | 108° |
| 2026-05-04 12:57 | 3.25230 | 99.50761 | 15837 ft | 351 kts | 108° |
| 2026-05-04 12:57 | 3.24442 | 99.53069 | 15837 ft | 351 kts | 108° |
| 2026-05-04 12:57 | 3.23660 | 99.55362 | 15834 ft | 351 kts | 108° |
| 2026-05-04 12:58 | 3.22866 | 99.57686 | 15834 ft | 351 kts | 108° |
| 2026-05-04 12:58 | 3.22074 | 99.60005 | 15836 ft | 351 kts | 108° |
| 2026-05-04 12:58 | 3.21333 | 99.62313 | 15836 ft | 351 kts | 104° |
| 2026-05-04 12:58 | 3.20907 | 99.64734 | 15837 ft | 349 kts | 93° |
| 2026-05-04 12:59 | 3.21056 | 99.67129 | 16003 ft | 361 kts | 79° |
| 2026-05-04 12:59 | 3.21679 | 99.69542 | 17042 ft | 354 kts | 75° |
| 2026-05-04 12:59 | 3.22381 | 99.71880 | 17729 ft | 358 kts | 74° |
| 2026-05-04 12:59 | 3.23127 | 99.74265 | 18345 ft | 364 kts | 73° |
| 2026-05-04 13:00 | 3.23889 | 99.76680 | 18976 ft | 368 kts | 73° |
| 2026-05-04 13:00 | 3.24658 | 99.79125 | 19597 ft | 372 kts | 73° |
| 2026-05-04 13:00 | 3.25441 | 99.81629 | 20236 ft | 375 kts | 74° |
| 2026-05-04 13:00 | 3.26214 | 99.84115 | 20798 ft | 380 kts | 74° |
| 2026-05-04 13:01 | 3.26994 | 99.86631 | 21368 ft | 384 kts | 74° |
| 2026-05-04 13:01 | 3.27790 | 99.89200 | 21922 ft | 387 kts | 74° |
| 2026-05-04 13:01 | 3.28589 | 99.91782 | 22463 ft | 391 kts | 74° |
| 2026-05-04 13:01 | 3.29396 | 99.94392 | 22969 ft | 396 kts | 74° |
| 2026-05-04 13:02 | 3.30212 | 99.97031 | 23514 ft | 400 kts | 74° |
| 2026-05-04 13:02 | 3.31034 | 99.99688 | 24039 ft | 403 kts | 74° |
| 2026-05-04 13:02 | 3.31860 | 100.02360 | 24538 ft | 407 kts | 74° |
| 2026-05-04 13:02 | 3.32710 | 100.05109 | 24833 ft | 413 kts | 73° |
| 2026-05-04 13:03 | 3.33545 | 100.07812 | 24841 ft | 410 kts | 73° |
| 2026-05-04 13:03 | 3.34391 | 100.10547 | 24843 ft | 407 kts | 73° |
| 2026-05-04 13:03 | 3.35230 | 100.13263 | 24844 ft | 408 kts | 73° |
| 2026-05-04 13:03 | 3.36057 | 100.15966 | 24841 ft | 409 kts | 74° |
| 2026-05-04 13:04 | 3.36876 | 100.18690 | 24839 ft | 408 kts | 74° |
| 2026-05-04 13:04 | 3.37671 | 100.21401 | 24838 ft | 408 kts | 76° |
| 2026-05-04 13:04 | 3.38201 | 100.24181 | 24836 ft | 407 kts | 84° |
| 2026-05-04 13:04 | 3.38236 | 100.27007 | 24837 ft | 407 kts | 95° |
| 2026-05-04 13:05 | 3.37803 | 100.29783 | 24839 ft | 408 kts | 103° |
| 2026-05-04 13:05 | 3.36985 | 100.32485 | 24839 ft | 408 kts | 111° |
| 2026-05-04 13:05 | 3.35710 | 100.35038 | 24840 ft | 407 kts | 120° |
| 2026-05-04 13:05 | 3.34219 | 100.37440 | 24838 ft | 408 kts | 121° |
| 2026-05-04 13:06 | 3.32711 | 100.39854 | 24833 ft | 408 kts | 121° |
| 2026-05-04 13:06 | 3.31227 | 100.42244 | 24833 ft | 408 kts | 121° |
| 2026-05-04 13:06 | 3.29732 | 100.44659 | 24829 ft | 407 kts | 121° |
| 2026-05-04 13:06 | 3.28251 | 100.47060 | 24828 ft | 407 kts | 121° |
| 2026-05-04 13:07 | 3.26748 | 100.49495 | 24826 ft | 407 kts | 121° |
| 2026-05-04 13:07 | 3.25270 | 100.51894 | 24823 ft | 407 kts | 121° |
| 2026-05-04 13:07 | 3.23784 | 100.54304 | 24746 ft | 405 kts | 121° |
| 2026-05-04 13:07 | 3.22314 | 100.56690 | 24499 ft | 396 kts | 121° |
| 2026-05-04 13:08 | 3.20881 | 100.59013 | 24256 ft | 388 kts | 121° |
| 2026-05-04 13:08 | 3.19481 | 100.61285 | 24018 ft | 388 kts | 121° |
| 2026-05-04 13:08 | 3.18058 | 100.63595 | 23778 ft | 390 kts | 121° |
| 2026-05-04 13:08 | 3.16630 | 100.65912 | 23533 ft | 388 kts | 121° |
| 2026-05-04 13:09 | 3.15234 | 100.68178 | 23296 ft | 385 kts | 121° |
| 2026-05-04 13:09 | 3.13824 | 100.70466 | 23054 ft | 383 kts | 121° |
| 2026-05-04 13:09 | 3.12427 | 100.72732 | 22811 ft | 380 kts | 121° |
| 2026-05-04 13:09 | 3.11049 | 100.74966 | 22572 ft | 379 kts | 121° |
| 2026-05-04 13:10 | 3.09676 | 100.77193 | 22337 ft | 377 kts | 121° |
| 2026-05-04 13:10 | 3.08299 | 100.79424 | 22100 ft | 375 kts | 121° |
| 2026-05-04 13:10 | 3.06928 | 100.81647 | 21870 ft | 374 kts | 121° |
| 2026-05-04 13:10 | 3.05564 | 100.83858 | 21642 ft | 373 kts | 121° |
| 2026-05-04 13:11 | 3.04199 | 100.86071 | 21411 ft | 372 kts | 121° |
| 2026-05-04 13:11 | 3.02856 | 100.88248 | 21182 ft | 370 kts | 121° |
| 2026-05-04 13:11 | 3.01494 | 100.90455 | 20952 ft | 370 kts | 121° |
| 2026-05-04 13:11 | 3.00164 | 100.92609 | 20726 ft | 368 kts | 121° |
| 2026-05-04 13:12 | 2.98818 | 100.94789 | 20498 ft | 367 kts | 121° |
| 2026-05-04 13:12 | 2.97480 | 100.96957 | 20206 ft | 360 kts | 121° |
| 2026-05-04 13:12 | 2.96173 | 100.99075 | 19791 ft | 357 kts | 121° |
| 2026-05-04 13:12 | 2.94887 | 101.01160 | 19303 ft | 355 kts | 120° |
| 2026-05-04 13:13 | 2.93588 | 101.03267 | 18802 ft | 354 kts | 120° |
| 2026-05-04 13:13 | 2.92292 | 101.05370 | 18282 ft | 352 kts | 120° |
| 2026-05-04 13:13 | 2.91027 | 101.07424 | 17801 ft | 350 kts | 120° |
| 2026-05-04 13:13 | 2.89742 | 101.09509 | 17291 ft | 349 kts | 120° |
| 2026-05-04 13:14 | 2.88480 | 101.11556 | 16796 ft | 347 kts | 120° |
| 2026-05-04 13:14 | 2.87202 | 101.13627 | 16264 ft | 346 kts | 120° |
| 2026-05-04 13:14 | 2.85956 | 101.15646 | 15774 ft | 344 kts | 120° |
| 2026-05-04 13:14 | 2.84678 | 101.17684 | 15368 ft | 340 kts | 121° |
| 2026-05-04 13:15 | 2.83362 | 101.19605 | 15135 ft | 337 kts | 123° |
| 2026-05-04 13:15 | 2.81969 | 101.21538 | 14909 ft | 340 kts | 124° |
| 2026-05-04 13:15 | 2.80578 | 101.23452 | 14676 ft | 339 kts | 124° |
| 2026-05-04 13:15 | 2.79203 | 101.25362 | 14439 ft | 337 kts | 124° |
| 2026-05-04 13:16 | 2.77854 | 101.27257 | 14205 ft | 336 kts | 123° |
| 2026-05-04 13:16 | 2.76503 | 101.29172 | 13964 ft | 335 kts | 123° |
| 2026-05-04 13:16 | 2.75166 | 101.31077 | 13722 ft | 335 kts | 123° |
| 2026-05-04 13:16 | 2.73824 | 101.32992 | 13485 ft | 333 kts | 123° |
| 2026-05-04 13:17 | 2.72500 | 101.34883 | 13257 ft | 334 kts | 123° |
| 2026-05-04 13:17 | 2.71176 | 101.36775 | 13018 ft | 334 kts | 123° |
| 2026-05-04 13:17 | 2.69841 | 101.38680 | 12790 ft | 332 kts | 123° |
| 2026-05-04 13:17 | 2.68524 | 101.40559 | 12554 ft | 331 kts | 123° |
| 2026-05-04 13:18 | 2.67196 | 101.42454 | 12314 ft | 330 kts | 123° |
| 2026-05-04 13:18 | 2.65879 | 101.44334 | 12087 ft | 328 kts | 123° |
| 2026-05-04 13:18 | 2.64575 | 101.46194 | 11853 ft | 327 kts | 123° |
| 2026-05-04 13:18 | 2.63259 | 101.48071 | 11615 ft | 327 kts | 123° |
| 2026-05-04 13:19 | 2.61966 | 101.49915 | 11371 ft | 326 kts | 123° |
| 2026-05-04 13:19 | 2.60667 | 101.51769 | 11132 ft | 326 kts | 123° |
| 2026-05-04 13:19 | 2.59350 | 101.53648 | 10897 ft | 325 kts | 123° |
| 2026-05-04 13:19 | 2.58064 | 101.55482 | 10666 ft | 324 kts | 123° |
| 2026-05-04 13:20 | 2.56779 | 101.57314 | 10426 ft | 317 kts | 123° |
| 2026-05-04 13:20 | 2.55528 | 101.59096 | 10242 ft | 307 kts | 123° |
| 2026-05-04 13:20 | 2.54331 | 101.60800 | 10139 ft | 294 kts | 123° |
| 2026-05-04 13:20 | 2.53183 | 101.62438 | 9968 ft | 286 kts | 123° |
| 2026-05-04 13:21 | 2.52041 | 101.64072 | 9602 ft | 286 kts | 123° |
| 2026-05-04 13:21 | 2.50918 | 101.65680 | 9221 ft | 285 kts | 123° |
| 2026-05-04 13:21 | 2.49783 | 101.67302 | 8864 ft | 283 kts | 123° |
| 2026-05-04 13:21 | 2.48647 | 101.68920 | 8508 ft | 282 kts | 123° |
| 2026-05-04 13:22 | 2.47522 | 101.70520 | 8158 ft | 281 kts | 123° |
| 2026-05-04 13:22 | 2.46400 | 101.72118 | 7798 ft | 280 kts | 123° |
| 2026-05-04 13:22 | 2.45278 | 101.73718 | 7476 ft | 277 kts | 123° |
| 2026-05-04 13:22 | 2.44193 | 101.75264 | 7334 ft | 268 kts | 123° |
| 2026-05-04 13:23 | 2.43139 | 101.76765 | 7259 ft | 256 kts | 123° |
| 2026-05-04 13:23 | 2.42237 | 101.78233 | 7174 ft | 244 kts | 112° |
| 2026-05-04 13:23 | 2.41845 | 101.79835 | 7056 ft | 233 kts | 84° |
| 2026-05-04 13:23 | 2.42303 | 101.81368 | 6821 ft | 231 kts | 57° |
| 2026-05-04 13:24 | 2.43221 | 101.82675 | 6570 ft | 229 kts | 53° |
| 2026-05-04 13:24 | 2.44126 | 101.83955 | 6330 ft | 225 kts | 54° |
| 2026-05-04 13:24 | 2.45001 | 101.85247 | 6082 ft | 222 kts | 55° |
| 2026-05-04 13:25 | 2.46700 | 101.87740 | 5820 ft | 203 kts | 52° |
| 2026-05-04 13:25 | 2.47688 | 101.88664 | 5744 ft | 189 kts | 27° |
| 2026-05-04 13:25 | 2.48902 | 101.89083 | 5662 ft | 183 kts | 10° |
| 2026-05-04 13:25 | 2.50189 | 101.89165 | 5303 ft | 190 kts | 356° |
| 2026-05-04 13:26 | 2.51497 | 101.88899 | 5074 ft | 186 kts | 341° |
| 2026-05-04 13:26 | 2.52624 | 101.88329 | 4983 ft | 180 kts | 326° |
| 2026-05-04 13:26 | 2.53552 | 101.87490 | 4904 ft | 181 kts | 310° |
| 2026-05-04 13:26 | 2.54275 | 101.86467 | 4879 ft | 182 kts | 307° |
| 2026-05-04 13:27 | 2.55114 | 101.85499 | 4647 ft | 185 kts | 319° |
| 2026-05-04 13:27 | 2.56125 | 101.84695 | 4360 ft | 185 kts | 325° |
| 2026-05-04 13:27 | 2.57185 | 101.83957 | 4111 ft | 184 kts | 327° |
| 2026-05-04 13:27 | 2.58248 | 101.83242 | 3864 ft | 182 kts | 327° |
| 2026-05-04 13:28 | 2.59302 | 101.82537 | 3616 ft | 181 kts | 327° |
| 2026-05-04 13:28 | 2.60348 | 101.81839 | 3371 ft | 180 kts | 327° |
| 2026-05-04 13:28 | 2.61392 | 101.81144 | 3130 ft | 178 kts | 327° |
| 2026-05-04 13:28 | 2.62417 | 101.80461 | 2894 ft | 177 kts | 327° |
| 2026-05-04 13:29 | 2.63436 | 101.79783 | 2666 ft | 175 kts | 327° |
| 2026-05-04 13:29 | 2.64466 | 101.79097 | 2434 ft | 173 kts | 327° |
| 2026-05-04 13:29 | 2.65429 | 101.78455 | 2220 ft | 161 kts | 327° |
| 2026-05-04 13:29 | 2.66331 | 101.77854 | 2045 ft | 149 kts | 327° |
| 2026-05-04 13:30 | 2.67216 | 101.77265 | 1817 ft | 151 kts | 327° |
| 2026-05-04 13:30 | 2.68094 | 101.76681 | 1621 ft | 149 kts | 327° |
| 2026-05-04 13:30 | 2.68959 | 101.76105 | 1427 ft | 150 kts | 327° |
| 2026-05-04 13:30 | 2.69832 | 101.75522 | 1233 ft | 150 kts | 327° |
| 2026-05-04 13:31 | 2.70713 | 101.74936 | 1031 ft | 150 kts | 327° |
| 2026-05-04 13:31 | 2.71581 | 101.74358 | 837 ft | 151 kts | 327° |
| 2026-05-04 13:31 | 2.72469 | 101.73786 | 630 ft | 150 kts | 328° |
| 2026-05-04 13:31 | 2.73355 | 101.73215 | 445 ft | 151 kts | 326° |
| 2026-05-04 13:32 | 2.74234 | 101.72617 | 248 ft | 151 kts | 326° |
| 2026-05-04 13:32 | 2.75101 | 101.72032 | 82 ft | 147 kts | 326° |
| 2026-05-04 13:32 | 2.75835 | 101.71538 | 75 ft | 93 kts | 326° |
| 2026-05-04 13:32 | 2.76227 | 101.71277 | 75 ft | 49 kts | 325° |
| 2026-05-04 13:33 | 2.76452 | 101.71120 | 74 ft | 31 kts | 318° |
| 2026-05-04 13:33 | 2.76553 | 101.70968 | 74 ft | 16 kts | 295° |
| 2026-05-04 13:33 | 2.76581 | 101.70905 | 74 ft | 6 kts | 290° |
| 2026-05-04 13:33 | 2.76582 | 101.70866 | 74 ft | 5 kts | 246° |
| 2026-05-04 13:34 | 2.76551 | 101.70845 | 74 ft | 5 kts | 184° |
| 2026-05-04 13:34 | 2.76514 | 101.70854 | 74 ft | 6 kts | 155° |
| 2026-05-04 13:34 | 2.76440 | 101.70901 | 74 ft | 17 kts | 145° |
| 2026-05-04 13:34 | 2.76339 | 101.70969 | 74 ft | 17 kts | 146° |
| 2026-05-04 13:35 | 2.76237 | 101.71037 | 74 ft | 17 kts | 146° |
| 2026-05-04 13:35 | 2.75975 | 101.71211 | 74 ft | 12 kts | 146° |
| 2026-05-04 13:36 | 2.75938 | 101.71236 | 74 ft | 5 kts | 146° |
| 2026-05-04 13:36 | 2.75761 | 101.71359 | 74 ft | 19 kts | 147° |
| 2026-05-04 13:36 | 2.75660 | 101.71424 | 74 ft | 16 kts | 147° |
| 2026-05-04 13:37 | 2.75608 | 101.71458 | 74 ft | 0 kts | 146° |
| 2026-05-04 13:37 | 2.75593 | 101.71468 | 74 ft | 6 kts | 146° |
| 2026-05-04 13:37 | 2.75530 | 101.71513 | 74 ft | 15 kts | 144° |
| 2026-05-04 13:37 | 2.75459 | 101.71561 | 74 ft | 21 kts | 148° |
| 2026-05-04 13:38 | 2.75294 | 101.71666 | 75 ft | 10 kts | 146° |
| 2026-05-04 13:38 | 2.75229 | 101.71700 | 74 ft | 9 kts | 184° |
| 2026-05-04 13:38 | 2.75180 | 101.71658 | 74 ft | 10 kts | 233° |
| 2026-05-04 13:38 | 2.75121 | 101.71578 | 74 ft | 17 kts | 233° |
| 2026-05-04 13:39 | 2.75048 | 101.71470 | 74 ft | 19 kts | 237° |
| 2026-05-04 13:39 | 2.74995 | 101.71381 | 74 ft | 7 kts | 236° |